Time;durP1;ratioP1;P1;durP2;ratioP2;P2;SDS_P1;SDS_P2;PMS_P1;PMS_P2;Temp;Humidity;BMP_temperature;BMP_pressure;BME280_temperature;BME280_humidity;BME280_pressure;Samples;Min_cycle;Max_cycle;Signal;HPM_P1;HPM_P2
2023/08/20 00:01:28;;;;;;;9.68;3.70;;;16.10;99.90;;;;;;5090771;28;20485;-69
2023/08/20 00:03:55;;;;;;;9.80;4.38;;;16.10;99.90;;;;;;5074172;28;20043;-69
2023/08/20 00:06:21;;;;;;;11.57;4.07;;;16.10;99.90;;;;;;5076122;28;20040;-69
2023/08/20 00:08:48;;;;;;;7.88;3.67;;;16.10;99.90;;;;;;5095087;28;20047;-69
2023/08/20 00:11:15;;;;;;;7.70;3.95;;;16.10;99.90;;;;;;5077471;28;20101;-69
2023/08/20 00:13:42;;;;;;;8.05;3.90;;;16.00;99.90;;;;;;5076751;28;20119;-69
2023/08/20 00:16:08;;;;;;;16.33;5.10;;;16.00;99.90;;;;;;5061092;28;20042;-69
2023/08/20 00:18:35;;;;;;;9.55;3.80;;;16.00;99.90;;;;;;5095675;28;20040;-69
2023/08/20 00:21:00;;;;;;;9.38;3.90;;;16.00;99.90;;;;;;5094174;28;20782;-69
2023/08/20 00:23:27;;;;;;;8.13;4.47;;;16.00;99.90;;;;;;5077718;28;20036;-69
2023/08/20 00:25:53;;;;;;;9.07;4.72;;;16.00;99.90;;;;;;5095957;28;20119;-68
2023/08/20 00:28:22;;;;;;;9.98;4.50;;;16.00;99.90;;;;;;5076580;28;20111;-68
2023/08/20 00:30:49;;;;;;;12.30;5.45;;;16.00;99.90;;;;;;5077159;28;20119;-69
2023/08/20 00:33:14;;;;;;;9.77;4.60;;;15.90;99.90;;;;;;5077063;28;20497;-69
2023/08/20 00:35:40;;;;;;;8.77;3.95;;;15.90;99.90;;;;;;5094530;28;20074;-69
2023/08/20 00:38:06;;;;;;;9.00;4.53;;;16.00;99.90;;;;;;5095649;28;20039;-69
2023/08/20 00:40:31;;;;;;;12.18;4.85;;;15.90;99.90;;;;;;5076682;28;20032;-69
2023/08/20 00:42:57;;;;;;;11.50;4.70;;;15.90;99.90;;;;;;5076205;28;20078;-69
2023/08/20 00:45:24;;;;;;;10.50;5.15;;;15.90;99.90;;;;;;5077028;28;20119;-69
2023/08/20 00:47:51;;;;;;;10.90;4.72;;;15.90;99.90;;;;;;5059933;28;20081;-69
2023/08/20 00:50:18;;;;;;;12.32;4.43;;;15.90;99.90;;;;;;5072473;28;20557;-70
2023/08/20 00:52:44;;;;;;;10.38;4.78;;;15.90;99.90;;;;;;5073886;28;20044;-69
2023/08/20 00:55:12;;;;;;;12.10;4.88;;;15.90;99.90;;;;;;5074877;28;20047;-69
2023/08/20 00:57:39;;;;;;;7.75;4.53;;;15.90;99.90;;;;;;5072301;28;20048;-69
2023/08/20 01:00:09;;;;;;;8.57;4.10;;;15.90;99.90;;;;;;5074621;28;20131;-69
2023/08/20 01:02:35;;;;;;;8.27;4.15;;;15.80;99.90;;;;;;5073285;28;20131;-69
2023/08/20 01:05:02;;;;;;;9.50;4.35;;;15.80;99.90;;;;;;5056421;28;20378;-69
2023/08/20 01:07:52;;;;;;;8.27;4.35;;;15.80;99.90;;;;;;5072805;28;20063;-69
2023/08/20 01:10:36;;;;;;;9.45;4.20;;;15.80;99.90;;;;;;5073514;28;20497;-69
2023/08/20 01:13:04;;;;;;;9.35;4.60;;;15.80;99.90;;;;;;5073471;28;20047;-69
2023/08/20 01:15:29;;;;;;;9.10;4.57;;;15.80;99.90;;;;;;5072776;28;20053;-69
2023/08/20 01:17:55;;;;;;;10.85;4.28;;;15.80;99.90;;;;;;5073624;28;20043;-69
2023/08/20 01:20:28;;;;;;;13.10;4.90;;;15.80;99.90;;;;;;5073963;28;20493;-69
2023/08/20 01:23:09;;;;;;;13.10;5.05;;;15.80;99.90;;;;;;5056498;28;20048;-69
2023/08/20 01:26:13;;;;;;;11.52;5.32;;;15.80;99.90;;;;;;5072117;28;20036;-69
2023/08/20 01:28:39;;;;;;;13.60;4.70;;;15.70;99.90;;;;;;5072663;28;20039;-69
2023/08/20 01:31:07;;;;;;;10.88;5.50;;;15.80;99.90;;;;;;5072549;28;20374;-69
2023/08/20 01:33:34;;;;;;;13.02;5.72;;;15.70;99.90;;;;;;5073109;28;20443;-69
2023/08/20 01:35:59;;;;;;;12.40;5.18;;;15.70;99.90;;;;;;5056226;28;20044;-69
2023/08/20 01:38:25;;;;;;;8.15;4.80;;;15.70;99.90;;;;;;5073406;28;20484;-69
2023/08/20 01:40:51;;;;;;;12.35;4.97;;;15.70;99.90;;;;;;5072667;28;20051;-69
2023/08/20 01:43:16;;;;;;;10.32;4.85;;;15.70;99.90;;;;;;5072566;28;20521;-69
2023/08/20 01:45:42;;;;;;;8.60;4.88;;;15.70;99.90;;;;;;5071849;28;20046;-69
2023/08/20 01:48:08;;;;;;;10.50;4.35;;;15.70;99.90;;;;;;5072496;28;20047;-69
2023/08/20 01:50:35;;;;;;;11.30;4.72;;;15.70;99.90;;;;;;5071814;28;20405;-68
2023/08/20 01:53:02;;;;;;;7.88;4.20;;;15.70;99.90;;;;;;5071807;28;20041;-69
2023/08/20 01:55:28;;;;;;;9.88;4.75;;;15.70;99.90;;;;;;5071894;28;20047;-69
2023/08/20 01:57:54;;;;;;;13.38;4.82;;;15.70;99.90;;;;;;5072227;28;20048;-69
2023/08/20 02:00:19;;;;;;;8.70;4.13;;;15.70;99.90;;;;;;5072749;28;20036;-69
2023/08/20 02:02:45;;;;;;;10.57;4.15;;;15.70;99.90;;;;;;5072059;28;20045;-69
2023/08/20 02:05:11;;;;;;;14.27;4.93;;;15.70;99.90;;;;;;5055626;28;20072;-69
2023/08/20 02:07:37;;;;;;;9.32;4.03;;;15.70;99.90;;;;;;5071141;28;20456;-69
2023/08/20 02:10:02;;;;;;;9.38;4.90;;;15.70;99.90;;;;;;5072393;28;20032;-69
2023/08/20 02:12:28;;;;;;;8.05;4.35;;;15.70;99.90;;;;;;5072766;28;20390;-69
2023/08/20 02:14:54;;;;;;;11.02;4.72;;;15.70;99.90;;;;;;5071507;28;20036;-69
2023/08/20 02:17:20;;;;;;;8.82;4.32;;;15.60;99.90;;;;;;5071886;28;20044;-69
2023/08/20 02:19:45;;;;;;;11.45;4.80;;;15.60;99.90;;;;;;5071803;28;20051;-69
2023/08/20 02:22:11;;;;;;;7.45;4.15;;;15.60;99.90;;;;;;5070826;28;20052;-68
2023/08/20 02:24:37;;;;;;;10.35;4.32;;;15.60;99.90;;;;;;5071925;28;20040;-69
2023/08/20 02:27:03;;;;;;;7.45;4.32;;;15.60;99.90;;;;;;5073335;28;20125;-69
2023/08/20 02:29:29;;;;;;;11.18;4.90;;;15.60;99.90;;;;;;5071448;28;20040;-69
2023/08/20 02:31:54;;;;;;;11.30;5.07;;;15.60;99.90;;;;;;5073038;28;20044;-69
2023/08/20 02:34:20;;;;;;;10.23;5.28;;;15.50;99.90;;;;;;5071875;28;20040;-69
2023/08/20 02:36:46;;;;;;;8.68;4.97;;;15.60;99.90;;;;;;5071731;28;20059;-69
2023/08/20 02:39:13;;;;;;;8.13;4.78;;;15.50;99.90;;;;;;5072694;28;20032;-69
2023/08/20 02:41:38;;;;;;;9.90;4.57;;;15.50;99.90;;;;;;5071871;28;20124;-69
2023/08/20 02:44:04;;;;;;;9.70;5.07;;;15.60;99.90;;;;;;5054204;28;20111;-69
2023/08/20 02:46:30;;;;;;;9.05;5.45;;;15.60;99.90;;;;;;5054654;28;20041;-69
2023/08/20 02:48:55;;;;;;;13.90;6.38;;;15.60;99.90;;;;;;5070734;28;20032;-69
2023/08/20 02:51:22;;;;;;;9.15;4.93;;;15.50;99.90;;;;;;5071078;28;20417;-68
2023/08/20 02:53:48;;;;;;;12.50;5.65;;;15.60;99.90;;;;;;5070957;28;20044;-69
2023/08/20 02:56:13;;;;;;;9.35;5.20;;;15.60;99.90;;;;;;5063527;28;20520;-69
2023/08/20 02:58:39;;;;;;;11.50;5.40;;;15.60;99.90;;;;;;5052579;28;20444;-69
2023/08/20 03:01:05;;;;;;;11.95;5.65;;;15.60;99.90;;;;;;5051335;28;20053;-68
2023/08/20 03:03:31;;;;;;;8.18;4.50;;;15.60;99.90;;;;;;5058957;28;20115;-69
2023/08/20 03:05:56;;;;;;;13.98;5.40;;;15.60;99.90;;;;;;5054531;28;20124;-69
2023/08/20 03:08:22;;;;;;;9.32;4.25;;;15.60;99.90;;;;;;5072450;28;20032;-69
2023/08/20 03:10:48;;;;;;;11.57;6.03;;;15.60;99.90;;;;;;5070519;28;20036;-69
2023/08/20 03:13:14;;;;;;;11.10;5.50;;;15.60;99.90;;;;;;5070469;28;20044;-68
2023/08/20 03:15:39;;;;;;;8.93;4.93;;;15.50;99.90;;;;;;5072124;28;20062;-68
2023/08/20 03:18:06;;;;;;;14.23;5.38;;;15.60;99.90;;;;;;5070259;28;20044;-68
2023/08/20 03:20:31;;;;;;;13.43;5.45;;;15.50;99.90;;;;;;5070972;28;20040;-68
2023/08/20 03:23:00;;;;;;;9.82;6.15;;;15.40;99.90;;;;;;5070450;28;20051;-68
2023/08/20 03:25:26;;;;;;;11.10;5.75;;;15.50;99.90;;;;;;5071075;28;20040;-70
2023/08/20 03:27:52;;;;;;;9.95;5.35;;;15.40;99.90;;;;;;5071774;28;20059;-69
2023/08/20 03:30:18;;;;;;;9.38;5.22;;;15.40;99.90;;;;;;5071799;28;20082;-68
2023/08/20 03:32:44;;;;;;;10.98;5.32;;;15.40;99.90;;;;;;5070841;28;20439;-69
2023/08/20 03:35:10;;;;;;;13.38;6.32;;;15.30;99.90;;;;;;5072116;28;20044;-69
2023/08/20 03:37:35;;;;;;;16.90;6.97;;;15.30;99.90;;;;;;5071731;28;20036;-69
2023/08/20 03:40:04;;;;;;;10.57;5.65;;;15.30;99.90;;;;;;5053679;28;20059;-69
2023/08/20 03:42:30;;;;;;;10.38;5.68;;;15.30;99.90;;;;;;5071476;28;20043;-68
2023/08/20 03:44:56;;;;;;;17.08;6.50;;;15.30;99.90;;;;;;5069645;28;20040;-69
2023/08/20 03:47:22;;;;;;;14.90;5.82;;;15.30;99.90;;;;;;5053864;28;20040;-68
2023/08/20 03:49:48;;;;;;;13.45;6.70;;;15.30;99.90;;;;;;5071768;28;20083;-69
2023/08/20 03:52:14;;;;;;;13.32;5.53;;;15.30;99.90;;;;;;5071054;28;20102;-68
2023/08/20 03:54:39;;;;;;;15.55;6.72;;;15.30;99.90;;;;;;5071417;28;20049;-68
2023/08/20 03:57:05;;;;;;;12.90;5.72;;;15.30;99.90;;;;;;5071933;28;20043;-68
2023/08/20 03:59:31;;;;;;;11.18;5.50;;;15.30;99.90;;;;;;5069546;28;20441;-68
2023/08/20 04:01:57;;;;;;;11.45;6.25;;;15.30;99.90;;;;;;5070911;28;20051;-68
2023/08/20 04:04:23;;;;;;;12.32;5.80;;;15.30;99.90;;;;;;5070195;28;20041;-68
2023/08/20 04:06:48;;;;;;;13.43;5.70;;;15.30;99.90;;;;;;5070857;28;20086;-68
2023/08/20 04:09:14;;;;;;;13.10;5.15;;;15.30;99.90;;;;;;5070385;28;20037;-68
2023/08/20 04:11:40;;;;;;;15.32;6.05;;;15.30;99.90;;;;;;5070612;28;20075;-69
2023/08/20 04:14:05;;;;;;;11.93;6.32;;;15.30;99.90;;;;;;5069232;28;20044;-68
2023/08/20 04:16:31;;;;;;;13.23;6.55;;;15.30;99.90;;;;;;5071924;28;20079;-68
2023/08/20 04:18:57;;;;;;;12.50;5.47;;;15.30;99.90;;;;;;5070551;28;20409;-68
2023/08/20 04:21:22;;;;;;;10.30;5.80;;;15.40;99.90;;;;;;5069404;28;20041;-68
2023/08/20 04:23:48;;;;;;;10.82;5.28;;;15.40;99.90;;;;;;5069778;28;20043;-69
2023/08/20 04:26:14;;;;;;;10.38;6.82;;;15.30;99.90;;;;;;5070370;28;20037;-69
2023/08/20 04:28:39;;;;;;;11.93;6.03;;;15.40;99.90;;;;;;5070496;28;20452;-69
2023/08/20 04:31:05;;;;;;;11.93;6.75;;;15.30;99.90;;;;;;5053591;28;20076;-68
2023/08/20 04:33:31;;;;;;;10.77;5.60;;;15.30;99.90;;;;;;5069683;28;20401;-68
2023/08/20 04:35:57;;;;;;;10.15;5.13;;;15.30;99.90;;;;;;5052526;28;20072;-68
2023/08/20 04:38:22;;;;;;;15.10;7.22;;;15.30;99.90;;;;;;5070389;28;20036;-69
2023/08/20 04:40:49;;;;;;;15.13;6.28;;;15.30;99.90;;;;;;5071408;28;20509;-68
2023/08/20 04:43:15;;;;;;;11.80;6.38;;;15.30;99.90;;;;;;5068874;28;20136;-68
2023/08/20 04:45:41;;;;;;;11.98;6.22;;;15.30;99.90;;;;;;5070322;28;20173;-69
2023/08/20 04:48:07;;;;;;;12.80;6.50;;;15.30;99.90;;;;;;5070503;28;20038;-69
2023/08/20 04:50:33;;;;;;;11.60;5.50;;;15.30;99.90;;;;;;5069947;28;20044;-68
2023/08/20 04:52:59;;;;;;;12.82;5.97;;;15.30;99.90;;;;;;5073233;28;20143;-68
2023/08/20 04:55:28;;;;;;;10.90;5.82;;;15.30;99.90;;;;;;5073600;28;20119;-69
2023/08/20 04:57:54;;;;;;;10.30;6.43;;;15.30;99.90;;;;;;5074981;28;20040;-68
2023/08/20 05:00:21;;;;;;;9.55;5.70;;;15.30;99.90;;;;;;5073518;28;20495;-68
2023/08/20 05:02:46;;;;;;;12.70;5.72;;;15.30;99.90;;;;;;5072228;28;20428;-68
2023/08/20 05:05:12;;;;;;;11.15;6.32;;;15.30;99.90;;;;;;5071850;28;20115;-68
2023/08/20 05:07:38;;;;;;;14.43;7.22;;;15.40;99.90;;;;;;5073171;28;20032;-68
2023/08/20 05:10:04;;;;;;;11.68;6.70;;;15.40;99.90;;;;;;5074209;28;20047;-68
2023/08/20 05:12:29;;;;;;;10.10;5.55;;;15.50;99.90;;;;;;5072731;28;20045;-69
2023/08/20 05:14:55;;;;;;;14.65;6.10;;;15.50;99.90;;;;;;5074380;28;20435;-68
2023/08/20 05:17:21;;;;;;;16.55;6.13;;;15.60;99.90;;;;;;5073462;28;20040;-69
2023/08/20 05:19:47;;;;;;;18.33;6.10;;;15.60;99.90;;;;;;5074398;28;20087;-68
2023/08/20 05:22:12;;;;;;;11.80;6.32;;;15.70;99.90;;;;;;5056268;28;20132;-69
2023/08/20 05:24:38;;;;;;;14.43;5.88;;;15.80;99.90;;;;;;5072931;28;20575;-69
2023/08/20 05:27:22;;;;;;;13.50;5.68;;;15.80;99.90;;;;;;5074348;28;20044;-69
2023/08/20 05:29:48;;;;;;;20.10;5.70;;;15.90;99.90;;;;;;5072890;28;20040;-68
2023/08/20 05:32:14;;;;;;;17.73;6.13;;;16.00;99.90;;;;;;5071809;28;20056;-68
2023/08/20 05:34:40;;;;;;;14.43;5.88;;;16.10;99.90;;;;;;5073251;28;20068;-69
2023/08/20 05:37:06;;;;;;;12.88;5.38;;;16.20;99.90;;;;;;5072910;28;20109;-68
2023/08/20 05:39:37;;;;;;;12.35;5.32;;;16.30;99.90;;;;;;5071426;28;20044;-68
2023/08/20 05:42:03;;;;;;;13.50;5.45;;;16.40;99.90;;;;;;5072961;28;20033;-69
2023/08/20 05:44:29;;;;;;;13.38;4.80;;;16.50;99.90;;;;;;5071451;28;20478;-69
2023/08/20 05:46:55;;;;;;;13.45;6.07;;;16.60;99.90;;;;;;5074113;28;20033;-68
2023/08/20 05:49:20;;;;;;;13.48;5.72;;;16.70;99.90;;;;;;5073812;28;20047;-69
2023/08/20 05:51:46;;;;;;;14.85;5.60;;;16.80;99.90;;;;;;5071419;28;20053;-68
2023/08/20 05:54:12;;;;;;;13.25;4.65;;;16.90;99.90;;;;;;5071884;28;20045;-68
2023/08/20 05:56:38;;;;;;;12.07;6.03;;;17.00;99.90;;;;;;5072551;28;20048;-68
2023/08/20 05:59:03;;;;;;;13.10;5.28;;;17.00;99.90;;;;;;5071890;28;20109;-69
2023/08/20 06:01:29;;;;;;;15.77;5.38;;;17.10;99.90;;;;;;5071582;28;20044;-68
2023/08/20 06:03:55;;;;;;;13.80;4.50;;;17.20;99.90;;;;;;5071781;28;20040;-68
2023/08/20 06:06:21;;;;;;;12.02;5.30;;;17.30;99.90;;;;;;5071475;28;20042;-68
2023/08/20 06:08:47;;;;;;;11.52;4.65;;;17.30;99.90;;;;;;5073780;28;20414;-69
2023/08/20 06:11:13;;;;;;;14.93;4.60;;;17.40;99.90;;;;;;5055504;28;20146;-69
2023/08/20 06:13:38;;;;;;;13.00;4.40;;;17.50;99.90;;;;;;5072232;28;20119;-68
2023/08/20 06:16:05;;;;;;;12.77;4.72;;;17.60;99.90;;;;;;5072103;28;20146;-69
2023/08/20 06:18:31;;;;;;;19.25;5.35;;;17.70;99.90;;;;;;5073241;28;20068;-68
2023/08/20 06:20:57;;;;;;;16.30;5.78;;;17.80;99.90;;;;;;5071638;28;20048;-68
2023/08/20 06:23:22;;;;;;;13.77;4.68;;;17.80;99.90;;;;;;5072411;28;20425;-69
2023/08/20 06:25:50;;;;;;;18.45;4.88;;;17.90;99.90;;;;;;5055162;28;20492;-69
2023/08/20 06:28:17;;;;;;;13.50;5.43;;;17.90;99.90;;;;;;5087905;28;20037;-69
2023/08/20 06:30:44;;;;;;;18.27;5.88;;;18.10;99.90;;;;;;5071567;28;20129;-69
2023/08/20 06:33:10;;;;;;;24.25;5.78;;;18.10;99.90;;;;;;5071100;28;20440;-68
2023/08/20 06:35:36;;;;;;;11.38;4.30;;;18.20;99.90;;;;;;5070951;28;20041;-68
2023/08/20 06:38:02;;;;;;;17.40;4.43;;;18.30;99.90;;;;;;5054937;28;20044;-68
2023/08/20 06:40:28;;;;;;;15.07;4.88;;;18.30;99.90;;;;;;5071357;28;20461;-69
2023/08/20 06:42:53;;;;;;;7.75;3.90;;;18.40;99.90;;;;;;5072453;28;20074;-68
2023/08/20 06:45:19;;;;;;;14.57;5.05;;;18.40;99.90;;;;;;5070725;28;20041;-69
2023/08/20 06:47:45;;;;;;;19.77;5.25;;;18.50;99.90;;;;;;5070518;28;20040;-68
2023/08/20 06:50:10;;;;;;;18.58;5.68;;;18.60;99.90;;;;;;5057725;28;20059;-68
2023/08/20 06:52:36;;;;;;;12.43;5.03;;;18.70;99.90;;;;;;5074575;28;20054;-68
2023/08/20 06:55:02;;;;;;;17.35;6.10;;;18.70;99.90;;;;;;5057058;28;20044;-68
2023/08/20 06:57:27;;;;;;;13.07;5.03;;;18.80;99.90;;;;;;5057496;28;20399;-69
2023/08/20 06:59:53;;;;;;;13.90;4.63;;;18.90;99.90;;;;;;5092989;28;20040;-70
2023/08/20 07:02:19;;;;;;;18.10;5.18;;;18.90;99.90;;;;;;5091610;28;20040;-69
2023/08/20 07:04:44;;;;;;;18.25;5.80;;;19.00;99.90;;;;;;5072574;28;20028;-69
2023/08/20 07:07:13;;;;;;;11.13;4.95;;;19.10;99.90;;;;;;5073503;28;20101;-69
2023/08/20 07:09:39;;;;;;;13.90;5.10;;;19.20;99.90;;;;;;5073554;28;20048;-69
2023/08/20 07:12:05;;;;;;;9.95;4.75;;;19.20;99.90;;;;;;5074532;28;20040;-69
2023/08/20 07:14:31;;;;;;;15.70;5.78;;;19.30;99.90;;;;;;5091923;28;20043;-70
2023/08/20 07:16:57;;;;;;;12.75;5.32;;;19.40;99.90;;;;;;5073760;28;20115;-69
2023/08/20 07:19:22;;;;;;;15.85;5.85;;;19.40;99.90;;;;;;5074204;28;20040;-69
2023/08/20 07:21:48;;;;;;;14.15;5.38;;;19.50;99.90;;;;;;5074376;28;20070;-69
2023/08/20 07:24:14;;;;;;;14.23;5.75;;;19.50;99.90;;;;;;5072218;28;20523;-69
2023/08/20 07:26:40;;;;;;;13.38;5.75;;;19.50;99.90;;;;;;5091915;28;20067;-69
2023/08/20 07:29:05;;;;;;;16.13;4.85;;;19.60;99.90;;;;;;5073971;28;20044;-69
2023/08/20 07:31:33;;;;;;;15.25;5.35;;;19.70;99.90;;;;;;5091529;28;20054;-69
2023/08/20 07:34:00;;;;;;;13.77;5.55;;;19.70;99.90;;;;;;5057078;28;20043;-69
2023/08/20 07:36:26;;;;;;;11.98;5.05;;;19.80;99.90;;;;;;5072877;28;20135;-69
2023/08/20 07:38:53;;;;;;;10.52;5.50;;;19.80;99.90;;;;;;5073344;28;20127;-69
2023/08/20 07:41:20;;;;;;;12.43;4.75;;;19.90;99.90;;;;;;5091787;28;20122;-69
2023/08/20 07:43:46;;;;;;;16.25;5.78;;;20.00;99.90;;;;;;5073593;28;20485;-69
2023/08/20 07:46:12;;;;;;;17.60;6.38;;;20.00;99.90;;;;;;5091730;28;20497;-69
2023/08/20 07:48:38;;;;;;;13.55;5.40;;;20.00;99.90;;;;;;5056738;28;20263;-69
2023/08/20 07:51:04;;;;;;;13.70;5.68;;;20.10;99.90;;;;;;5070005;28;20056;-70
2023/08/20 07:53:31;;;;;;;14.48;5.72;;;20.20;99.90;;;;;;5070259;28;20036;-69
2023/08/20 07:55:57;;;;;;;17.25;5.78;;;20.30;99.90;;;;;;5070352;28;20516;-70
2023/08/20 07:58:23;;;;;;;13.90;4.68;;;20.50;99.90;;;;;;5070447;28;20062;-70
2023/08/20 08:00:48;;;;;;;16.13;5.05;;;20.50;99.90;;;;;;5053758;28;20039;-70
2023/08/20 08:03:14;;;;;;;12.75;4.68;;;20.50;99.90;;;;;;5071169;28;20044;-70
2023/08/20 08:05:41;;;;;;;13.40;4.95;;;20.50;99.90;;;;;;5053158;28;20036;-70
2023/08/20 08:08:07;;;;;;;16.38;6.35;;;20.50;99.90;;;;;;5070048;28;20041;-69
2023/08/20 08:10:32;;;;;;;14.48;5.30;;;20.60;99.90;;;;;;5071708;28;20038;-70
2023/08/20 08:12:58;;;;;;;17.23;5.93;;;20.60;99.90;;;;;;5070680;28;20033;-70
2023/08/20 08:15:24;;;;;;;16.08;5.93;;;20.70;99.90;;;;;;5053566;28;20044;-70
2023/08/20 08:17:49;;;;;;;9.10;4.68;;;20.80;99.90;;;;;;5069217;28;20028;-70
2023/08/20 08:20:15;;;;;;;14.95;5.07;;;20.90;99.90;;;;;;5069439;28;20090;-70
2023/08/20 08:22:41;;;;;;;21.13;5.32;;;21.00;99.90;;;;;;5071647;28;20072;-70
2023/08/20 08:25:06;;;;;;;12.82;5.18;;;21.00;99.90;;;;;;5070151;28;20485;-70
2023/08/20 08:27:32;;;;;;;14.95;4.88;;;21.00;99.90;;;;;;5072199;28;20032;-70
2023/08/20 08:29:58;;;;;;;12.57;4.63;;;20.80;99.90;;;;;;5055048;28;20037;-70
2023/08/20 08:32:24;;;;;;;11.40;5.35;;;20.80;99.90;;;;;;5052359;28;20055;-70
2023/08/20 08:34:50;;;;;;;14.10;5.72;;;21.00;99.90;;;;;;5050545;28;20049;-69
2023/08/20 08:37:15;;;;;;;16.85;4.93;;;21.10;99.90;;;;;;5066161;28;20070;-70
2023/08/20 08:39:41;;;;;;;11.30;4.68;;;21.30;99.90;;;;;;5070456;28;20489;-69
2023/08/20 08:42:10;;;;;;;10.75;3.95;;;21.50;99.90;;;;;;5071098;28;20045;-69
2023/08/20 08:44:37;;;;;;;11.65;4.55;;;21.50;99.90;;;;;;5070867;28;20143;-67
2023/08/20 08:47:04;;;;;;;14.90;4.43;;;21.30;99.90;;;;;;5068451;28;20490;-67
2023/08/20 08:49:33;;;;;;;14.35;4.45;;;21.20;99.90;;;;;;5049343;28;20494;-67
2023/08/20 08:51:59;;;;;;;12.13;4.38;;;21.10;99.90;;;;;;5070096;28;20139;-67
2023/08/20 08:54:27;;;;;;;12.75;4.90;;;21.20;99.90;;;;;;5055381;28;20514;-67
2023/08/20 08:56:53;;;;;;;14.68;4.38;;;21.30;99.90;;;;;;5051031;28;20120;-68
2023/08/20 08:59:19;;;;;;;13.88;4.90;;;21.40;99.90;;;;;;5050251;28;20049;-67
2023/08/20 09:01:45;;;;;;;10.75;4.50;;;21.50;99.90;;;;;;5050364;28;20052;-70
2023/08/20 09:04:11;;;;;;;11.90;4.47;;;21.60;99.90;;;;;;5050914;28;20045;-70
2023/08/20 09:06:47;;;;;;;8.38;3.95;;;21.70;99.90;;;;;;5050151;28;20124;-70
2023/08/20 09:09:13;;;;;;;11.73;3.28;;;21.60;99.90;;;;;;5048612;28;20048;-69
2023/08/20 09:11:39;;;;;;;7.78;2.83;;;21.30;99.90;;;;;;5051223;28;20059;-69
2023/08/20 09:14:05;;;;;;;9.70;3.08;;;21.30;99.90;;;;;;5059587;28;20043;-70
2023/08/20 09:16:31;;;;;;;8.13;3.22;;;21.30;99.90;;;;;;5068696;28;20047;-69
2023/08/20 09:19:00;;;;;;;10.35;3.35;;;21.50;99.90;;;;;;5060488;28;20051;-70
2023/08/20 09:21:30;;;;;;;12.98;3.78;;;21.70;99.90;;;;;;5049546;28;20049;-69
2023/08/20 09:24:02;;;;;;;14.80;4.03;;;21.80;99.90;;;;;;5050447;28;20043;-71
2023/08/20 09:26:28;;;;;;;11.77;4.65;;;22.00;99.90;;;;;;5049461;28;20037;-70
2023/08/20 09:28:56;;;;;;;12.20;3.47;;;22.10;99.90;;;;;;5049205;28;20043;-69
2023/08/20 09:31:39;;;;;;;10.73;3.25;;;22.00;99.90;;;;;;5050029;28;20127;-70
2023/08/20 09:34:05;;;;;;;13.60;3.92;;;21.80;99.90;;;;;;5049819;28;20067;-70
2023/08/20 09:36:34;;;;;;;12.40;4.00;;;21.70;99.90;;;;;;5048640;28;20458;-69
2023/08/20 09:39:03;;;;;;;14.48;4.13;;;21.70;99.90;;;;;;5051662;28;20094;-70
2023/08/20 09:41:30;;;;;;;10.95;3.85;;;21.60;99.90;;;;;;5059107;28;20044;-70
2023/08/20 09:43:57;;;;;;;8.68;3.00;;;21.60;99.90;;;;;;5049338;28;20049;-69
2023/08/20 09:46:25;;;;;;;9.55;3.65;;;21.70;99.90;;;;;;5049106;28;20037;-70
2023/08/20 09:48:54;;;;;;;10.35;2.88;;;21.80;99.90;;;;;;5049209;28;20041;-70
2023/08/20 09:51:25;;;;;;;11.75;3.47;;;22.00;99.90;;;;;;5074839;28;20051;-70
2023/08/20 09:53:57;;;;;;;12.00;3.35;;;22.30;99.90;;;;;;5072009;28;20331;-70
2023/08/20 09:56:31;;;;;;;9.10;3.22;;;22.40;99.90;;;;;;5071663;28;20115;-70
2023/08/20 09:59:01;;;;;;;10.50;2.85;;;22.40;99.90;;;;;;5071754;28;20036;-70
2023/08/20 10:01:28;;;;;;;11.85;3.47;;;22.20;99.90;;;;;;5090286;28;20119;-69
2023/08/20 10:03:54;;;;;;;10.30;2.80;;;22.00;99.90;;;;;;5073896;28;20149;-70
2023/08/20 10:06:20;;;;;;;7.18;2.47;;;21.80;99.90;;;;;;5054700;28;20059;-70
2023/08/20 10:08:49;;;;;;;10.75;3.33;;;21.70;99.90;;;;;;5090939;28;20032;-71
2023/08/20 10:11:15;;;;;;;11.18;2.72;;;21.60;99.90;;;;;;5072954;28;20746;-71
2023/08/20 10:13:41;;;;;;;5.80;1.75;;;21.60;99.90;;;;;;5072393;28;20043;-71
2023/08/20 10:16:06;;;;;;;8.60;3.30;;;21.50;99.90;;;;;;5073062;28;20107;-70
2023/08/20 10:18:34;;;;;;;10.10;2.65;;;21.60;99.90;;;;;;5072720;28;20079;-69
2023/08/20 10:21:02;;;;;;;8.50;2.53;;;21.70;99.90;;;;;;5073278;28;20123;-68
2023/08/20 10:23:27;;;;;;;8.20;2.60;;;21.90;99.90;;;;;;5072679;28;20044;-68
2023/08/20 10:25:53;;;;;;;7.28;2.65;;;22.10;99.90;;;;;;5090877;28;20070;-68
2023/08/20 10:28:24;;;;;;;6.80;2.55;;;22.30;99.90;;;;;;5072309;28;20101;-68
2023/08/20 10:31:09;;;;;;;10.98;2.75;;;22.40;99.90;;;;;;5054847;28;20037;-69
2023/08/20 10:33:36;;;;;;;10.73;3.40;;;22.60;99.90;;;;;;5082555;28;20039;-67
2023/08/20 10:36:28;;;;;;;10.13;2.95;;;22.70;99.90;;;;;;5093043;28;20036;-65
2023/08/20 10:38:56;;;;;;;6.95;2.50;;;22.80;99.90;;;;;;5087647;28;20054;-70
2023/08/20 10:41:27;;;;;;;7.97;2.15;;;22.80;99.90;;;;;;5073555;28;20044;-70
2023/08/20 10:43:53;;;;;;;7.43;2.13;;;22.70;99.90;;;;;;5058120;28;20117;-70
2023/08/20 10:46:20;;;;;;;8.68;2.50;;;22.70;99.90;;;;;;5074926;28;20059;-70
2023/08/20 10:48:51;;;;;;;6.75;2.38;;;22.70;99.90;;;;;;5073805;28;20097;-70
2023/08/20 10:51:26;;;;;;;9.77;2.35;;;22.90;99.90;;;;;;5092769;28;20080;-69
2023/08/20 10:54:01;;;;;;;8.00;2.28;;;23.00;99.90;;;;;;5092023;28;20115;-69
2023/08/20 10:56:54;;;;;;;8.75;2.58;;;23.20;99.90;;;;;;5092619;28;20039;-70
2023/08/20 10:59:21;;;;;;;6.43;1.95;;;23.40;99.90;;;;;;5058005;28;20040;-70
2023/08/20 11:01:51;;;;;;;8.85;2.30;;;23.50;99.90;;;;;;5073868;28;20513;-70
2023/08/20 11:04:20;;;;;;;8.23;2.53;;;23.70;99.90;;;;;;5057627;28;20119;-70
2023/08/20 11:06:49;;;;;;;6.18;1.98;;;23.70;99.90;;;;;;5092408;28;20443;-69
2023/08/20 11:09:15;;;;;;;8.23;2.22;;;23.70;99.90;;;;;;5073607;28;20130;-70
2023/08/20 11:11:41;;;;;;;6.72;1.70;;;23.70;99.90;;;;;;5074500;28;20119;-69
2023/08/20 11:14:11;;;;;;;6.47;1.70;;;23.70;99.90;;;;;;5092602;28;20036;-70
2023/08/20 11:16:37;;;;;;;9.00;2.25;;;23.60;99.90;;;;;;5091726;28;20123;-69
2023/08/20 11:19:08;;;;;;;8.00;2.65;;;23.40;99.90;;;;;;5074405;28;20149;-69
2023/08/20 11:21:34;;;;;;;7.90;2.65;;;23.30;99.90;;;;;;5074188;28;20052;-69
2023/08/20 11:24:01;;;;;;;7.63;2.22;;;23.30;99.90;;;;;;5073638;28;20512;-69
2023/08/20 11:26:27;;;;;;;7.32;2.60;;;23.30;99.90;;;;;;5074379;28;20549;-70
2023/08/20 11:28:52;;;;;;;8.52;2.17;;;23.40;99.90;;;;;;5073610;28;20036;-69
2023/08/20 11:31:19;;;;;;;9.80;2.53;;;23.50;99.90;;;;;;5074351;28;20079;-70
2023/08/20 11:33:45;;;;;;;10.13;2.38;;;23.60;99.90;;;;;;5074016;28;20508;-70
2023/08/20 11:36:11;;;;;;;8.15;2.33;;;23.70;99.90;;;;;;5073203;28;20382;-69
2023/08/20 11:38:37;;;;;;;10.43;2.60;;;23.80;99.90;;;;;;5092280;28;20396;-69
2023/08/20 11:41:03;;;;;;;8.57;2.50;;;23.80;99.90;;;;;;5074231;28;20032;-70
2023/08/20 11:43:29;;;;;;;6.50;1.95;;;23.80;99.90;;;;;;5072887;28;20048;-70
2023/08/20 11:45:56;;;;;;;7.32;2.63;;;23.80;99.90;;;;;;5074507;28;20036;-69
2023/08/20 11:48:22;;;;;;;9.77;2.33;;;23.70;99.90;;;;;;5074194;28;20036;-70
2023/08/20 11:50:49;;;;;;;12.50;2.97;;;23.70;99.90;;;;;;5072908;28;20113;-70
2023/08/20 11:53:15;;;;;;;8.35;3.10;;;23.60;99.90;;;;;;5073764;28;20054;-69
2023/08/20 11:55:41;;;;;;;6.20;2.25;;;23.60;99.90;;;;;;5074144;28;20393;-69
2023/08/20 11:58:12;;;;;;;7.45;2.13;;;23.40;99.90;;;;;;5056485;28;20052;-70
2023/08/20 12:00:38;;;;;;;8.52;2.58;;;23.20;99.90;;;;;;5093244;28;20484;-69
2023/08/20 12:03:05;;;;;;;6.60;2.17;;;23.10;99.90;;;;;;5078026;28;20040;-70
2023/08/20 12:05:31;;;;;;;4.75;1.50;;;23.10;99.90;;;;;;5077186;28;20114;-70
2023/08/20 12:07:58;;;;;;;8.32;2.00;;;23.20;99.90;;;;;;5061410;28;20046;-70
2023/08/20 12:10:26;;;;;;;8.70;1.98;;;23.30;99.90;;;;;;5061017;28;20040;-70
2023/08/20 12:12:52;;;;;;;8.55;2.75;;;23.30;99.90;;;;;;5077329;28;20051;-70
2023/08/20 12:15:19;;;;;;;7.22;2.03;;;23.30;99.90;;;;;;5077691;28;20567;-70
2023/08/20 12:17:56;;;;;;;10.98;3.13;;;23.30;99.90;;;;;;5095950;28;20047;-70
2023/08/20 12:20:22;;;;;;;6.78;2.08;;;23.30;99.90;;;;;;5077142;28;20039;-69
2023/08/20 12:22:47;;;;;;;7.78;2.50;;;23.30;99.90;;;;;;5077579;28;20604;-69
2023/08/20 12:25:13;;;;;;;5.97;1.88;;;23.30;99.90;;;;;;5095029;28;20066;-69
2023/08/20 12:27:38;;;;;;;8.15;2.45;;;23.30;99.90;;;;;;5077424;28;20035;-70
2023/08/20 12:30:05;;;;;;;7.55;2.10;;;23.40;99.90;;;;;;5095776;28;20089;-69
2023/08/20 12:32:30;;;;;;;7.78;2.08;;;23.40;99.90;;;;;;5059957;28;20092;-70
2023/08/20 12:34:56;;;;;;;7.82;1.73;;;23.60;99.90;;;;;;5095871;28;20426;-70
2023/08/20 12:37:22;;;;;;;6.97;1.70;;;23.60;99.90;;;;;;5095535;28;20507;-70
2023/08/20 12:39:48;;;;;;;6.13;1.88;;;23.50;99.90;;;;;;5076395;28;20044;-70